Strona główna
METAR-TAF:

METAR-TAF

Lotnisko :

Florianópolis, Santa Catarina, Brazylia

Szerokość geograficzna: 27-40S, Długość geograficzna: 048-33W, wysokość: 5 m

Aktualna obserwacja pogody

Raport powstał 21 minut temu, godzina 23:00 UTC
Wiatr 11 kt od północ
Temperatura 21°C
Wilgotność 88%
Ciśnienie 1013 hPa
Widzialność 10 km lub więcej
Mało chmury na wysokości 900 ft

METAR: SBFL 222300Z 01011KT 9999 FEW009 21/19 Q1013

czas: 20:21 (23:21 UTC)

Prognoza

Raport powstał 8 godziny i 21 minut temu, godzina 15:00 UTC
Prognoza ważna od 22 godzina 18 UTC do 23 godzina 18 UTC
Wiatr 10 kt od północ
Widzialność 10 km lub więcej
Brak chmur poniżej 1500 m i brak chmur cumulonimbus

TAF: SBFL 221500Z 2218/2318 36010KT CAVOK TX29/2218Z TN20/2308Z RMK PD J

Obserwacja i prognoza pogody dla ponad 4000 lotnisk (raport METAR i TAF).

Dostępne stacje oznaczono żółtymi i czerwonymi punktami na mapie.

Najedź kursorem aby zobaczyć nazwę stacji.

Kliknij aby zobaczyć obserwacje i prognozy pogody.

Aby zmienić mapę: kliknij na zielony przycisk z czarnym krzyżykiem, aby powiększyć; na zielony przycisk z myślnikiem, aby pomniejszyć; na zielone strzałki, aby przejść do map sąsiednich.


METAR-TAF: